sensor_id;sensor_type;location;lat;lon;timestamp;pressure;altitude;pressure_sealevel;temperature;humidity
55914;BME280;58179;48.776;9.124;2023-11-21T00:00:23;96798.91;;;6.01;100.00
55914;BME280;58179;48.776;9.124;2023-11-21T00:02:51;96798.63;;;6.02;100.00
55914;BME280;58179;48.776;9.124;2023-11-21T00:05:17;96793.94;;;6.04;100.00
55914;BME280;58179;48.776;9.124;2023-11-21T00:07:44;96798.75;;;6.07;100.00
55914;BME280;58179;48.776;9.124;2023-11-21T00:10:11;96785.63;;;6.07;100.00
55914;BME280;58179;48.776;9.124;2023-11-21T00:12:40;96780.13;;;6.09;100.00
55914;BME280;58179;48.776;9.124;2023-11-21T00:15:08;96778.28;;;6.09;100.00
55914;BME280;58179;48.776;9.124;2023-11-21T00:17:36;96775.66;;;6.09;100.00
55914;BME280;58179;48.776;9.124;2023-11-21T00:20:05;96775.34;;;6.06;100.00
55914;BME280;58179;48.776;9.124;2023-11-21T00:22:32;96771.44;;;6.08;100.00
55914;BME280;58179;48.776;9.124;2023-11-21T00:24:59;96773.28;;;6.08;100.00
55914;BME280;58179;48.776;9.124;2023-11-21T00:27:25;96771.75;;;6.12;100.00
55914;BME280;58179;48.776;9.124;2023-11-21T00:29:51;96772.09;;;6.15;100.00
55914;BME280;58179;48.776;9.124;2023-11-21T00:32:17;96768.41;;;6.16;100.00
55914;BME280;58179;48.776;9.124;2023-11-21T00:34:44;96764.22;;;6.15;100.00
55914;BME280;58179;48.776;9.124;2023-11-21T00:37:11;96764.75;;;6.17;100.00
55914;BME280;58179;48.776;9.124;2023-11-21T00:39:37;96774.00;;;6.20;100.00
55914;BME280;58179;48.776;9.124;2023-11-21T00:42:04;96771.94;;;6.22;100.00
55914;BME280;58179;48.776;9.124;2023-11-21T00:44:30;96763.03;;;6.23;100.00
55914;BME280;58179;48.776;9.124;2023-11-21T00:46:57;96771.13;;;6.21;100.00
55914;BME280;58179;48.776;9.124;2023-11-21T00:49:23;96769.31;;;6.22;100.00
55914;BME280;58179;48.776;9.124;2023-11-21T00:51:49;96767.47;;;6.22;100.00
55914;BME280;58179;48.776;9.124;2023-11-21T00:54:16;96769.06;;;6.24;100.00
55914;BME280;58179;48.776;9.124;2023-11-21T00:56:43;96768.28;;;6.23;100.00
55914;BME280;58179;48.776;9.124;2023-11-21T00:59:09;96769.06;;;6.24;100.00
55914;BME280;58179;48.776;9.124;2023-11-21T01:01:36;96772.72;;;6.22;100.00
55914;BME280;58179;48.776;9.124;2023-11-21T01:04:04;96768.50;;;6.21;100.00
55914;BME280;58179;48.776;9.124;2023-11-21T01:06:30;96776.16;;;6.23;100.00
55914;BME280;58179;48.776;9.124;2023-11-21T01:08:57;96763.56;;;6.25;100.00
55914;BME280;58179;48.776;9.124;2023-11-21T01:11:24;96768.34;;;6.28;100.00
55914;BME280;58179;48.776;9.124;2023-11-21T01:13:50;96767.53;;;6.28;100.00
55914;BME280;58179;48.776;9.124;2023-11-21T01:16:17;96769.16;;;6.29;100.00
55914;BME280;58179;48.776;9.124;2023-11-21T01:18:43;96773.13;;;6.31;100.00
55914;BME280;58179;48.776;9.124;2023-11-21T01:21:09;96767.63;;;6.33;100.00
55914;BME280;58179;48.776;9.124;2023-11-21T01:23:35;96765.78;;;6.33;100.00
55914;BME280;58179;48.776;9.124;2023-11-21T01:26:02;96760.28;;;6.35;100.00
55914;BME280;58179;48.776;9.124;2023-11-21T01:28:30;96764.53;;;6.36;100.00
55914;BME280;58179;48.776;9.124;2023-11-21T01:30:56;96766.91;;;6.37;100.00
55914;BME280;58179;48.776;9.124;2023-11-21T01:33:23;96765.88;;;6.38;100.00
55914;BME280;58179;48.776;9.124;2023-11-21T01:35:51;96764.59;;;6.41;100.00
55914;BME280;58179;48.776;9.124;2023-11-21T01:38:20;96765.38;;;6.41;100.00
55914;BME280;58179;48.776;9.124;2023-11-21T01:40:46;96770.09;;;6.39;100.00
55914;BME280;58179;48.776;9.124;2023-11-21T01:43:13;96764.06;;;6.39;100.00
55914;BME280;58179;48.776;9.124;2023-11-21T01:45:40;96762.19;;;6.39;100.00
55914;BME280;58179;48.776;9.124;2023-11-21T01:48:06;96758.81;;;6.39;100.00
55914;BME280;58179;48.776;9.124;2023-11-21T01:50:33;96755.09;;;6.40;100.00
55914;BME280;58179;48.776;9.124;2023-11-21T01:53:00;96758.81;;;6.39;100.00
55914;BME280;58179;48.776;9.124;2023-11-21T01:55:27;96754.81;;;6.36;100.00
55914;BME280;58179;48.776;9.124;2023-11-21T01:57:55;96760.28;;;6.35;100.00
55914;BME280;58179;48.776;9.124;2023-11-21T02:00:22;96764.19;;;6.32;100.00
55914;BME280;58179;48.776;9.124;2023-11-21T02:02:50;96762.63;;;6.31;100.00
55914;BME280;58179;48.776;9.124;2023-11-21T02:05:18;96758.13;;;6.32;100.00
55914;BME280;58179;48.776;9.124;2023-11-21T02:07:44;96760.75;;;6.32;100.00
55914;BME280;58179;48.776;9.124;2023-11-21T02:10:11;96760.75;;;6.32;100.00
55914;BME280;58179;48.776;9.124;2023-11-21T02:12:45;96764.13;;;6.27;100.00
55914;BME280;58179;48.776;9.124;2023-11-21T02:15:13;96756.69;;;6.24;100.00
55914;BME280;58179;48.776;9.124;2023-11-21T02:17:51;96755.38;;;6.21;100.00
55914;BME280;58179;48.776;9.124;2023-11-21T02:20:18;96756.16;;;6.22;100.00
55914;BME280;58179;48.776;9.124;2023-11-21T02:22:48;96754.06;;;6.24;100.00
55914;BME280;58179;48.776;9.124;2023-11-21T02:25:15;96744.84;;;6.21;100.00
55914;BME280;58179;48.776;9.124;2023-11-21T02:27:41;96749.31;;;6.21;100.00
55914;BME280;58179;48.776;9.124;2023-11-21T02:30:10;96751.59;;;6.17;100.00
55914;BME280;58179;48.776;9.124;2023-11-21T02:32:39;96743.19;;;6.15;100.00
55914;BME280;58179;48.776;9.124;2023-11-21T02:35:06;96747.06;;;6.13;100.00
55914;BME280;58179;48.776;9.124;2023-11-21T02:37:34;96751.31;;;6.14;100.00
55914;BME280;58179;48.776;9.124;2023-11-21T02:40:02;96746.50;;;6.11;100.00
55914;BME280;58179;48.776;9.124;2023-11-21T02:42:32;96742.53;;;6.08;100.00
55914;BME280;58179;48.776;9.124;2023-11-21T02:44:58;96743.47;;;6.02;100.00
55914;BME280;58179;48.776;9.124;2023-11-21T02:47:24;96738.59;;;5.94;100.00
55914;BME280;58179;48.776;9.124;2023-11-21T02:49:51;96737.13;;;5.87;100.00
55914;BME280;58179;48.776;9.124;2023-11-21T02:52:18;96738.31;;;5.79;100.00
55914;BME280;58179;48.776;9.124;2023-11-21T02:54:46;96736.41;;;5.74;100.00
55914;BME280;58179;48.776;9.124;2023-11-21T02:57:14;96737.91;;;5.70;100.00
55914;BME280;58179;48.776;9.124;2023-11-21T02:59:40;96735.75;;;5.67;100.00
55914;BME280;58179;48.776;9.124;2023-11-21T03:02:06;96727.09;;;5.67;100.00
55914;BME280;58179;48.776;9.124;2023-11-21T03:04:34;96727.56;;;5.64;100.00
55914;BME280;58179;48.776;9.124;2023-11-21T03:07:01;96729.63;;;5.62;100.00
55914;BME280;58179;48.776;9.124;2023-11-21T03:09:27;96726.44;;;5.60;100.00
55914;BME280;58179;48.776;9.124;2023-11-21T03:11:53;96732.41;;;5.55;100.00
55914;BME280;58179;48.776;9.124;2023-11-21T03:14:21;96733.09;;;5.51;100.00
55914;BME280;58179;48.776;9.124;2023-11-21T03:16:48;96743.28;;;5.47;100.00
55914;BME280;58179;48.776;9.124;2023-11-21T03:19:15;96738.47;;;5.44;100.00
55914;BME280;58179;48.776;9.124;2023-11-21T03:21:41;96741.91;;;5.44;100.00
55914;BME280;58179;48.776;9.124;2023-11-21T03:24:07;96750.13;;;5.48;100.00
55914;BME280;58179;48.776;9.124;2023-11-21T03:26:34;96757.84;;;5.55;100.00
55914;BME280;58179;48.776;9.124;2023-11-21T03:29:00;96744.00;;;5.59;100.00
55914;BME280;58179;48.776;9.124;2023-11-21T03:31:27;96744.34;;;5.63;100.00
55914;BME280;58179;48.776;9.124;2023-11-21T03:33:53;96753.09;;;5.68;100.00
55914;BME280;58179;48.776;9.124;2023-11-21T03:36:20;96747.63;;;5.70;100.00
55914;BME280;58179;48.776;9.124;2023-11-21T03:38:47;96741.34;;;5.71;100.00
55914;BME280;58179;48.776;9.124;2023-11-21T03:41:14;96743.19;;;5.70;100.00
55914;BME280;58179;48.776;9.124;2023-11-21T03:43:40;96746.03;;;5.69;100.00
55914;BME280;58179;48.776;9.124;2023-11-21T03:46:07;96754.94;;;5.68;100.00
55914;BME280;58179;48.776;9.124;2023-11-21T03:48:34;96746.03;;;5.69;100.00
55914;BME280;58179;48.776;9.124;2023-11-21T03:51:01;96761.28;;;5.72;100.00
55914;BME280;58179;48.776;9.124;2023-11-21T03:53:27;96757.41;;;5.74;100.00
55914;BME280;58179;48.776;9.124;2023-11-21T03:55:54;96761.19;;;5.78;100.00
55914;BME280;58179;48.776;9.124;2023-11-21T03:58:20;96769.59;;;5.80;100.00
55914;BME280;58179;48.776;9.124;2023-11-21T04:00:47;96767.53;;;5.82;100.00
55914;BME280;58179;48.776;9.124;2023-11-21T04:03:15;96762.63;;;5.86;100.00
55914;BME280;58179;48.776;9.124;2023-11-21T04:05:42;96762.63;;;5.86;100.00
55914;BME280;58179;48.776;9.124;2023-11-21T04:08:08;96768.44;;;5.88;100.00
55914;BME280;58179;48.776;9.124;2023-11-21T04:10:35;96762.16;;;5.89;100.00
55914;BME280;58179;48.776;9.124;2023-11-21T04:13:01;96763.75;;;5.90;100.00
55914;BME280;58179;48.776;9.124;2023-11-21T04:15:27;96766.16;;;5.92;100.00
55914;BME280;58179;48.776;9.124;2023-11-21T04:17:53;96766.16;;;5.92;100.00
55914;BME280;58179;48.776;9.124;2023-11-21T04:20:20;96770.38;;;5.93;100.00
55914;BME280;58179;48.776;9.124;2023-11-21T04:22:47;96762.25;;;5.94;100.00
55914;BME280;58179;48.776;9.124;2023-11-21T04:25:15;96773.31;;;5.96;100.00
55914;BME280;58179;48.776;9.124;2023-11-21T04:27:42;96761.78;;;5.97;100.00
55914;BME280;58179;48.776;9.124;2023-11-21T04:30:10;96756.22;;;5.94;100.00
55914;BME280;58179;48.776;9.124;2023-11-21T04:32:36;96764.09;;;5.94;100.00
55914;BME280;58179;48.776;9.124;2023-11-21T04:35:03;96760.34;;;5.90;100.00
55914;BME280;58179;48.776;9.124;2023-11-21T04:37:30;96758.41;;;5.85;100.00
55914;BME280;58179;48.776;9.124;2023-11-21T04:39:57;96765.94;;;5.81;100.00
55914;BME280;58179;48.776;9.124;2023-11-21T04:42:23;96766.88;;;5.75;100.00
55914;BME280;58179;48.776;9.124;2023-11-21T04:44:49;96764.19;;;5.70;100.00
55914;BME280;58179;48.776;9.124;2023-11-21T04:47:16;96771.94;;;5.65;100.00
55914;BME280;58179;48.776;9.124;2023-11-21T04:49:42;96766.38;;;5.62;100.00
55914;BME280;58179;48.776;9.124;2023-11-21T04:52:09;96774.47;;;5.60;100.00
55914;BME280;58179;48.776;9.124;2023-11-21T04:54:36;96771.28;;;5.58;100.00
55914;BME280;58179;48.776;9.124;2023-11-21T04:57:03;96770.50;;;5.58;100.00
55914;BME280;58179;48.776;9.124;2023-11-21T04:59:31;96767.88;;;5.58;100.00
55914;BME280;58179;48.776;9.124;2023-11-21T05:01:57;96769.47;;;5.59;100.00
55914;BME280;58179;48.776;9.124;2023-11-21T05:04:23;96767.06;;;5.57;100.00
55914;BME280;58179;48.776;9.124;2023-11-21T05:06:49;96772.31;;;5.57;100.00
55914;BME280;58179;48.776;9.124;2023-11-21T05:09:15;96773.13;;;5.58;100.00
55914;BME280;58179;48.776;9.124;2023-11-21T05:11:42;96778.63;;;5.56;100.00
55914;BME280;58179;48.776;9.124;2023-11-21T05:14:09;96784.91;;;5.55;100.00
55914;BME280;58179;48.776;9.124;2023-11-21T05:16:36;96783.06;;;5.56;100.00
55914;BME280;58179;48.776;9.124;2023-11-21T05:19:02;96787.25;;;5.57;100.00
55914;BME280;58179;48.776;9.124;2023-11-21T05:21:30;96782.59;;;5.59;100.00
55914;BME280;58179;48.776;9.124;2023-11-21T05:23:59;96781.56;;;5.60;100.00
55914;BME280;58179;48.776;9.124;2023-11-21T05:26:25;96789.66;;;5.58;100.00
55914;BME280;58179;48.776;9.124;2023-11-21T05:28:51;96794.38;;;5.56;100.00
55914;BME280;58179;48.776;9.124;2023-11-21T05:31:19;96798.25;;;5.54;100.00
55914;BME280;58179;48.776;9.124;2023-11-21T05:33:45;96802.63;;;5.48;100.00
55914;BME280;58179;48.776;9.124;2023-11-21T05:36:11;96801.47;;;5.44;100.00
55914;BME280;58179;48.776;9.124;2023-11-21T05:38:38;96802.97;;;5.40;100.00
55914;BME280;58179;48.776;9.124;2023-11-21T05:41:04;96807.88;;;5.36;100.00
55914;BME280;58179;48.776;9.124;2023-11-21T05:43:30;96804.94;;;5.33;100.00
55914;BME280;58179;48.776;9.124;2023-11-21T05:45:58;96813.84;;;5.32;100.00
55914;BME280;58179;48.776;9.124;2023-11-21T05:48:25;96819.31;;;5.30;100.00
55914;BME280;58179;48.776;9.124;2023-11-21T05:50:52;96822.72;;;5.31;100.00
55914;BME280;58179;48.776;9.124;2023-11-21T05:53:18;96824.31;;;5.32;100.00
55914;BME280;58179;48.776;9.124;2023-11-21T05:55:45;96815.66;;;5.31;100.00
55914;BME280;58179;48.776;9.124;2023-11-21T05:58:11;96817.00;;;5.34;100.00
55914;BME280;58179;48.776;9.124;2023-11-21T06:00:37;96817.78;;;5.34;100.00
55914;BME280;58179;48.776;9.124;2023-11-21T06:03:04;96818.38;;;5.36;100.00
55914;BME280;58179;48.776;9.124;2023-11-21T06:05:33;96821.00;;;5.36;100.00
55914;BME280;58179;48.776;9.124;2023-11-21T06:07:59;96823.41;;;5.38;100.00
55914;BME280;58179;48.776;9.124;2023-11-21T06:10:27;96821.56;;;5.38;100.00
55914;BME280;58179;48.776;9.124;2023-11-21T06:12:54;96828.41;;;5.39;100.00
55914;BME280;58179;48.776;9.124;2023-11-21T06:15:20;96830.25;;;5.39;100.00
55914;BME280;58179;48.776;9.124;2023-11-21T06:17:48;96837.53;;;5.37;100.00
55914;BME280;58179;48.776;9.124;2023-11-21T06:20:19;96842.69;;;5.32;100.00
55914;BME280;58179;48.776;9.124;2023-11-21T06:22:48;96836.53;;;5.26;100.00
55914;BME280;58179;48.776;9.124;2023-11-21T06:25:14;96851.72;;;5.24;100.00
55914;BME280;58179;48.776;9.124;2023-11-21T06:27:42;96853.75;;;5.22;100.00
55914;BME280;58179;48.776;9.124;2023-11-21T06:30:10;96853.75;;;5.22;100.00
55914;BME280;58179;48.776;9.124;2023-11-21T06:32:38;96854.13;;;5.26;100.00
55914;BME280;58179;48.776;9.124;2023-11-21T06:35:05;96864.13;;;5.29;100.00
55914;BME280;58179;48.776;9.124;2023-11-21T06:37:32;96854.00;;;5.32;100.00
55914;BME280;58179;48.776;9.124;2023-11-21T06:40:00;96860.59;;;5.35;100.00
55914;BME280;58179;48.776;9.124;2023-11-21T06:42:27;96858.53;;;5.37;100.00
55914;BME280;58179;48.776;9.124;2023-11-21T06:44:55;96864.94;;;5.41;100.00
55914;BME280;58179;48.776;9.124;2023-11-21T06:47:25;96866.06;;;5.45;100.00
55914;BME280;58179;48.776;9.124;2023-11-21T06:49:51;96869.25;;;5.47;100.00
55914;BME280;58179;48.776;9.124;2023-11-21T06:52:17;96875.63;;;5.51;100.00
55914;BME280;58179;48.776;9.124;2023-11-21T06:54:44;96873.34;;;5.55;100.00
55914;BME280;58179;48.776;9.124;2023-11-21T06:57:12;96869.22;;;5.59;100.00
55914;BME280;58179;48.776;9.124;2023-11-21T06:59:38;96870.59;;;5.61;100.00
55914;BME280;58179;48.776;9.124;2023-11-21T07:02:04;96885.66;;;5.66;100.00
55914;BME280;58179;48.776;9.124;2023-11-21T07:04:32;96888.63;;;5.69;100.00
55914;BME280;58179;48.776;9.124;2023-11-21T07:06:58;96884.72;;;5.72;100.00
55914;BME280;58179;48.776;9.124;2023-11-21T07:09:25;96887.91;;;5.74;100.00
55914;BME280;58179;48.776;9.124;2023-11-21T07:11:51;96887.47;;;5.77;100.00
55914;BME280;58179;48.776;9.124;2023-11-21T07:14:19;96889.84;;;5.78;100.00
55914;BME280;58179;48.776;9.124;2023-11-21T07:16:45;96895.66;;;5.80;100.00
55914;BME280;58179;48.776;9.124;2023-11-21T07:19:12;96886.75;;;5.81;100.00
55914;BME280;58179;48.776;9.124;2023-11-21T07:21:39;96892.56;;;5.83;100.00
55914;BME280;58179;48.776;9.124;2023-11-21T07:24:06;96895.53;;;5.87;100.00
55914;BME280;58179;48.776;9.124;2023-11-21T07:26:34;96897.94;;;5.89;100.00
55914;BME280;58179;48.776;9.124;2023-11-21T07:29:00;96904.56;;;5.91;100.00
55914;BME280;58179;48.776;9.124;2023-11-21T07:31:28;96905.81;;;5.89;100.00
55914;BME280;58179;48.776;9.124;2023-11-21T07:33:55;96907.19;;;5.91;100.00
55914;BME280;58179;48.776;9.124;2023-11-21T07:36:25;96912.78;;;5.95;100.00
55914;BME280;58179;48.776;9.124;2023-11-21T07:38:51;96911.53;;;5.97;100.00
55914;BME280;58179;48.776;9.124;2023-11-21T07:41:17;96916.06;;;6.02;100.00
55914;BME280;58179;48.776;9.124;2023-11-21T07:43:45;96916.63;;;6.04;100.00
55914;BME280;58179;48.776;9.124;2023-11-21T07:46:11;96916.19;;;6.07;100.00
55914;BME280;58179;48.776;9.124;2023-11-21T07:48:42;96920.94;;;6.10;100.00
55914;BME280;58179;48.776;9.124;2023-11-21T07:51:09;96919.13;;;6.10;100.00
55914;BME280;58179;48.776;9.124;2023-11-21T07:53:36;96917.41;;;6.16;100.00
55914;BME280;58179;48.776;9.124;2023-11-21T07:56:03;96932.13;;;6.17;100.00
55914;BME280;58179;48.776;9.124;2023-11-21T07:58:30;96924.00;;;6.18;100.00
55914;BME280;58179;48.776;9.124;2023-11-21T08:00:56;96921.50;;;6.24;100.00
55914;BME280;58179;48.776;9.124;2023-11-21T08:03:23;96930.50;;;6.28;100.00
55914;BME280;58179;48.776;9.124;2023-11-21T08:05:50;96928.97;;;6.32;100.00
55914;BME280;58179;48.776;9.124;2023-11-21T08:08:16;96935.69;;;6.39;100.00
55914;BME280;58179;48.776;9.124;2023-11-21T08:10:44;96940.56;;;6.47;100.00
55914;BME280;58179;48.776;9.124;2023-11-21T08:13:20;96936.69;;;6.50;100.00
55914;BME280;58179;48.776;9.124;2023-11-21T08:15:46;96941.22;;;6.54;100.00
55914;BME280;58179;48.776;9.124;2023-11-21T08:18:12;96936.78;;;6.55;100.00
55914;BME280;58179;48.776;9.124;2023-11-21T08:20:40;96944.28;;;6.63;100.00
55914;BME280;58179;48.776;9.124;2023-11-21T08:23:08;96945.19;;;6.69;100.00
55914;BME280;58179;48.776;9.124;2023-11-21T08:25:34;96941.69;;;6.80;100.00
55914;BME280;58179;48.776;9.124;2023-11-21T08:28:00;96943.91;;;6.88;100.00
55914;BME280;58179;48.776;9.124;2023-11-21T08:30:27;96940.19;;;7.00;100.00
55914;BME280;58179;48.776;9.124;2023-11-21T08:32:56;96946.81;;;7.03;100.00
55914;BME280;58179;48.776;9.124;2023-11-21T08:35:24;96940.56;;;7.09;100.00
55914;BME280;58179;48.776;9.124;2023-11-21T08:37:51;96940.75;;;7.19;100.00
55914;BME280;58179;48.776;9.124;2023-11-21T08:40:20;96945.84;;;7.26;100.00
55914;BME280;58179;48.776;9.124;2023-11-21T08:42:47;96949.97;;;7.38;100.00
55914;BME280;58179;48.776;9.124;2023-11-21T08:45:14;96945.72;;;7.54;100.00
55914;BME280;58179;48.776;9.124;2023-11-21T08:47:40;96948.56;;;7.69;100.00
55914;BME280;58179;48.776;9.124;2023-11-21T08:50:07;96948.63;;;7.74;100.00
55914;BME280;58179;48.776;9.124;2023-11-21T08:52:33;96957.81;;;7.89;100.00
55914;BME280;58179;48.776;9.124;2023-11-21T08:55:00;96952.41;;;8.00;100.00
55914;BME280;58179;48.776;9.124;2023-11-21T08:57:34;96961.28;;;8.16;100.00
55914;BME280;58179;48.776;9.124;2023-11-21T09:00:01;96962.88;;;8.17;100.00
55914;BME280;58179;48.776;9.124;2023-11-21T09:02:27;96968.09;;;8.12;100.00
55914;BME280;58179;48.776;9.124;2023-11-21T09:04:53;96966.66;;;8.04;100.00
55914;BME280;58179;48.776;9.124;2023-11-21T09:07:19;96974.22;;;7.96;100.00
55914;BME280;58179;48.776;9.124;2023-11-21T09:09:48;96973.84;;;7.87;100.00
55914;BME280;58179;48.776;9.124;2023-11-21T09:12:15;96968.25;;;7.84;100.00
55914;BME280;58179;48.776;9.124;2023-11-21T09:14:43;96967.97;;;7.80;100.00
55914;BME280;58179;48.776;9.124;2023-11-21T09:17:10;96974.69;;;7.71;100.00
55914;BME280;58179;48.776;9.124;2023-11-21T09:19:40;96972.28;;;7.69;100.00
55914;BME280;58179;48.776;9.124;2023-11-21T09:22:07;96975.88;;;7.80;100.00
55914;BME280;58179;48.776;9.124;2023-11-21T09:24:33;96982.63;;;7.93;100.00
55914;BME280;58179;48.776;9.124;2023-11-21T09:26:59;96988.25;;;8.01;100.00
55914;BME280;58179;48.776;9.124;2023-11-21T09:29:26;96982.25;;;8.06;100.00
55914;BME280;58179;48.776;9.124;2023-11-21T09:31:53;96985.25;;;8.14;100.00
55914;BME280;58179;48.776;9.124;2023-11-21T09:34:20;96986.91;;;8.21;100.00
55914;BME280;58179;48.776;9.124;2023-11-21T09:36:47;96996.97;;;8.24;100.00
55914;BME280;58179;48.776;9.124;2023-11-21T09:39:13;96987.47;;;8.23;100.00
55914;BME280;58179;48.776;9.124;2023-11-21T09:41:44;96992.69;;;8.18;100.00
55914;BME280;58179;48.776;9.124;2023-11-21T09:44:13;96997.59;;;8.09;100.00
55914;BME280;58179;48.776;9.124;2023-11-21T09:46:43;96994.81;;;7.99;100.00
55914;BME280;58179;48.776;9.124;2023-11-21T09:49:12;96996.03;;;7.91;100.00
55914;BME280;58179;48.776;9.124;2023-11-21T09:51:40;97000.69;;;7.84;100.00
55914;BME280;58179;48.776;9.124;2023-11-21T09:54:10;97002.91;;;7.75;100.00
55914;BME280;58179;48.776;9.124;2023-11-21T09:56:37;97003.31;;;7.67;100.00
55914;BME280;58179;48.776;9.124;2023-11-21T09:59:04;97002.22;;;7.63;100.00
55914;BME280;58179;48.776;9.124;2023-11-21T10:01:35;97006.13;;;7.61;100.00
55914;BME280;58179;48.776;9.124;2023-11-21T10:04:02;97005.84;;;7.57;100.00
55914;BME280;58179;48.776;9.124;2023-11-21T10:06:31;97008.22;;;7.59;100.00
55914;BME280;58179;48.776;9.124;2023-11-21T10:08:58;97010.13;;;7.63;100.00
55914;BME280;58179;48.776;9.124;2023-11-21T10:11:25;97010.69;;;7.65;100.00
55914;BME280;58179;48.776;9.124;2023-11-21T10:13:54;97012.81;;;7.68;100.00
55914;BME280;58179;48.776;9.124;2023-11-21T10:16:20;97013.16;;;7.72;100.00
55914;BME280;58179;48.776;9.124;2023-11-21T10:18:49;97012.66;;;7.75;100.00
55914;BME280;58179;48.776;9.124;2023-11-21T10:21:18;97013.00;;;7.78;100.00
55914;BME280;58179;48.776;9.124;2023-11-21T10:23:46;97011.72;;;7.81;100.00
55914;BME280;58179;48.776;9.124;2023-11-21T10:26:12;97018.03;;;7.80;100.00
55914;BME280;58179;48.776;9.124;2023-11-21T10:28:54;97010.28;;;7.73;100.00
55914;BME280;58179;48.776;9.124;2023-11-21T10:31:21;97008.75;;;7.61;100.00
55914;BME280;58179;48.776;9.124;2023-11-21T10:33:47;97015.22;;;7.53;100.00
55914;BME280;58179;48.776;9.124;2023-11-21T10:36:13;97023.31;;;7.47;100.00
55914;BME280;58179;48.776;9.124;2023-11-21T10:38:51;97024.50;;;7.39;100.00
55914;BME280;58179;48.776;9.124;2023-11-21T10:41:19;97018.13;;;7.35;100.00
55914;BME280;58179;48.776;9.124;2023-11-21T10:43:45;97021.00;;;7.33;100.00
55914;BME280;58179;48.776;9.124;2023-11-21T10:46:12;97024.50;;;7.39;100.00
55914;BME280;58179;48.776;9.124;2023-11-21T10:48:39;97020.50;;;7.53;100.00
55914;BME280;58179;48.776;9.124;2023-11-21T10:51:08;97025.53;;;7.71;100.00
55914;BME280;58179;48.776;9.124;2023-11-21T10:53:39;97023.69;;;7.89;100.00
55914;BME280;58179;48.776;9.124;2023-11-21T10:56:09;97028.09;;;8.05;100.00
55914;BME280;58179;48.776;9.124;2023-11-21T10:58:43;97019.53;;;8.14;100.00
55914;BME280;58179;48.776;9.124;2023-11-21T11:01:10;97026.97;;;8.18;100.00
55914;BME280;58179;48.776;9.124;2023-11-21T11:03:38;97022.91;;;8.10;100.00
55914;BME280;58179;48.776;9.124;2023-11-21T11:06:05;97022.47;;;7.96;100.00
55914;BME280;58179;48.776;9.124;2023-11-21T11:08:37;97024.63;;;7.83;100.00
55914;BME280;58179;48.776;9.124;2023-11-21T11:11:04;97028.47;;;7.75;100.00
55914;BME280;58179;48.776;9.124;2023-11-21T11:13:32;97027.38;;;7.71;100.00
55914;BME280;58179;48.776;9.124;2023-11-21T11:15:59;97028.41;;;7.70;100.00
55914;BME280;58179;48.776;9.124;2023-11-21T11:18:29;97022.66;;;7.73;100.00
55914;BME280;58179;48.776;9.124;2023-11-21T11:21:00;97031.09;;;7.75;100.00
55914;BME280;58179;48.776;9.124;2023-11-21T11:23:40;97025.34;;;7.78;100.00
55914;BME280;58179;48.776;9.124;2023-11-21T11:26:20;97028.84;;;7.84;100.00
55914;BME280;58179;48.776;9.124;2023-11-21T11:29:04;97029.75;;;7.89;100.00
55914;BME280;58179;48.776;9.124;2023-11-21T11:31:39;97030.03;;;7.93;100.00
55914;BME280;58179;48.776;9.124;2023-11-21T11:34:13;97027.78;;;8.01;100.00
55914;BME280;58179;48.776;9.124;2023-11-21T11:36:48;97030.59;;;8.11;100.00
55914;BME280;58179;48.776;9.124;2023-11-21T11:39:27;97029.66;;;8.23;100.00
55914;BME280;58179;48.776;9.124;2023-11-21T11:41:56;97029.47;;;8.29;100.00
55914;BME280;58179;48.776;9.124;2023-11-21T11:44:51;97038.81;;;8.37;100.00
55914;BME280;58179;48.776;9.124;2023-11-21T11:47:21;97030.00;;;8.48;100.00
55914;BME280;58179;48.776;9.124;2023-11-21T11:50:05;97034.94;;;8.66;100.00
55914;BME280;58179;48.776;9.124;2023-11-21T11:52:40;97036.75;;;8.87;100.00
55914;BME280;58179;48.776;9.124;2023-11-21T11:55:08;97038.56;;;9.09;100.00
55914;BME280;58179;48.776;9.124;2023-11-21T11:57:38;97030.25;;;9.22;100.00
55914;BME280;58179;48.776;9.124;2023-11-21T12:00:15;97031.31;;;9.26;100.00
55914;BME280;58179;48.776;9.124;2023-11-21T12:02:42;97036.47;;;9.38;100.00
55914;BME280;58179;48.776;9.124;2023-11-21T12:05:10;97039.97;;;9.48;100.00
55914;BME280;58179;48.776;9.124;2023-11-21T12:07:44;97036.59;;;9.53;100.00
55914;BME280;58179;48.776;9.124;2023-11-21T12:10:13;97035.53;;;9.54;100.00
55914;BME280;58179;48.776;9.124;2023-11-21T12:12:46;97035.25;;;9.55;100.00
55914;BME280;58179;48.776;9.124;2023-11-21T12:15:14;97039.22;;;9.53;100.00
55914;BME280;58179;48.776;9.124;2023-11-21T12:17:43;97032.63;;;9.55;100.00
55914;BME280;58179;48.776;9.124;2023-11-21T12:20:10;97029.25;;;9.60;100.00
55914;BME280;58179;48.776;9.124;2023-11-21T12:22:44;97033.19;;;9.62;100.00
55914;BME280;58179;48.776;9.124;2023-11-21T12:25:13;97040.53;;;9.55;100.00
55914;BME280;58179;48.776;9.124;2023-11-21T12:27:42;97041.53;;;9.44;100.00
55914;BME280;58179;48.776;9.124;2023-11-21T12:30:11;97039.56;;;9.29;100.00
55914;BME280;58179;48.776;9.124;2023-11-21T12:32:41;97042.84;;;9.15;100.00
55914;BME280;58179;48.776;9.124;2023-11-21T12:35:09;97042.94;;;8.98;100.00
55914;BME280;58179;48.776;9.124;2023-11-21T12:37:36;97040.72;;;8.85;100.00
55914;BME280;58179;48.776;9.124;2023-11-21T12:40:05;97045.63;;;8.76;100.00
55914;BME280;58179;48.776;9.124;2023-11-21T12:42:32;97059.50;;;8.67;100.00
55914;BME280;58179;48.776;9.124;2023-11-21T12:45:21;97057.97;;;8.49;100.00
55914;BME280;58179;48.776;9.124;2023-11-21T12:47:50;97058.09;;;8.37;100.00
55914;BME280;58179;48.776;9.124;2023-11-21T12:50:19;97061.91;;;8.30;100.00
55914;BME280;58179;48.776;9.124;2023-11-21T12:52:50;97064.72;;;8.23;100.00
55914;BME280;58179;48.776;9.124;2023-11-21T12:55:18;97058.59;;;8.18;100.00
55914;BME280;58179;48.776;9.124;2023-11-21T12:57:47;97056.19;;;8.16;100.00
55914;BME280;58179;48.776;9.124;2023-11-21T13:00:17;97061.63;;;8.26;100.00
55914;BME280;58179;48.776;9.124;2023-11-21T13:02:56;97061.09;;;8.46;100.00